M I D A S
Marine Information and Data Acquisition System
Tripno 2046 of the Zeeleeuw from 2011-02-23 07:51:06 to 2011-02-23 15:02:59
Back to CruiseResearch ActivitiesStationsMapUnderway DataData graphs

EquipmentUnitsComment
TimeDGPSUTC
LatitudeDGPSDM.mWGS84
LongitudeDGPSDM.mWGS84
TemperatureSBE03/SBE38deg celciusITS90
ConductivitySBE21S/mITS90
SalinitySBE21 Practical Salinity Units
ChlorophylAChelsea fluorimeterg/lCalibrated in Aceton
Missing or incorrect values are displayed as -999
Sea surface data collected by the RV Zeeleeuw from 2011-02-23 06:56:33 to 2011-02-23 15:09:00
Time Latitude Longitude Temperature Conductivity Salinity ChlorophylA
2011-02-23 06:57:38 51°13.665 2°55.957 13.8489 0.018148 0.093667 0.35757
2011-02-23 06:58:38 51°13.662 2°55.959 13.8408 0.018148 0.093679 0.35757
2011-02-23 06:59:38 51°13.662 2°55.96 13.8295 0.018148 0.093693 0.35757
2011-02-23 07:00:38 51°13.662 2°55.961 13.8259 0.018148 0.093705 0.322746
2011-02-23 07:01:38 51°13.663 2°55.96 13.828 0.018148 0.093717 0.35757
2011-02-23 07:02:38 51°13.663 2°55.962 13.8407 0.018148 0.093726 0.322746
2011-02-23 07:03:38 51°13.662 2°55.961 13.8475 0.018148 0.093736 0.322746
2011-02-23 07:04:38 51°13.663 2°55.96 13.8485 0.018148 0.093746 0.35757
2011-02-23 07:05:37 51°13.663 2°55.96 13.8507 0.018148 0.093754 0.322746
2011-02-23 07:06:38 51°13.662 2°55.96 13.8387 0.018148 0.093762 0.35757
2011-02-23 07:07:38 51°13.663 2°55.959 13.8625 0.018148 0.093768 0.35757
2011-02-23 07:08:38 51°13.663 2°55.96 13.8754 0.018148 0.093777 0.322746
2011-02-23 07:09:38 51°13.663 2°55.96 13.8766 0.018148 0.093784 0.322746
2011-02-23 07:10:38 51°13.663 2°55.96 13.8849 0.018148 0.093791 0.322746
2011-02-23 07:11:38 51°13.663 2°55.96 13.884 0.018148 0.0938 0.35757
2011-02-23 07:12:38 51°13.662 2°55.96 13.8857 0.018148 0.093807 0.35757
2011-02-23 07:13:38 51°13.662 2°55.96 13.8906 0.018148 0.093815 0.35757
2011-02-23 07:14:38 51°13.662 2°55.96 13.8958 0.018148 0.093825 0.35757
2011-02-23 07:15:38 51°13.662 2°55.96 13.905 0.018044 0.09332 0.35757
2011-02-23 07:16:38 51°13.662 2°55.96 13.9031 0.018148 0.093848 0.392394
2011-02-23 07:17:37 51°13.661 2°55.959 13.913 0.018044 0.093342 0.392394
2011-02-23 07:18:38 51°13.661 2°55.959 13.9159 0.018044 0.093356 0.35757
2011-02-23 07:19:38 51°13.661 2°55.959 13.9189 0.018044 0.093369 0.35757
2011-02-23 07:20:38 51°13.661 2°55.959 13.9347 0.018044 0.093381 0.35757
2011-02-23 07:21:38 51°13.66 2°55.96 13.9381 0.018044 0.093394 0.35757
2011-02-23 07:22:37 51°13.661 2°55.959 13.9402 0.018044 0.093406 0.35757
2011-02-23 07:23:37 51°13.661 2°55.959 13.943 0.018044 0.093418 0.392394
2011-02-23 07:24:38 51°13.661 2°55.959 13.9518 0.018044 0.093433 0.35757
2011-02-23 07:25:38 51°13.661 2°55.96 13.9525 0.018044 0.093448 0.392394
2011-02-23 07:26:38 51°13.661 2°55.96 13.9478 0.018044 0.093462 0.35757
2011-02-23 07:27:38 51°13.661 2°55.96 13.9494 0.018044 0.093477 0.35757
2011-02-23 07:28:38 51°13.662 2°55.96 13.9681 0.018044 0.093491 0.322746
2011-02-23 07:29:38 51°13.663 2°55.959 13.9695 0.018044 0.093504 0.392394
2011-02-23 07:30:38 51°13.664 2°55.959 13.9881 0.018044 0.093519 0.392394
2011-02-23 07:31:38 51°13.663 2°55.96 13.9989 0.018044 0.093533 0.35757
2011-02-23 07:32:38 51°13.663 2°55.959 14.02 0.018044 0.093545 0.35757
2011-02-23 07:33:38 51°13.664 2°55.959 14.0024 0.018044 0.093556 0.35757
2011-02-23 07:34:38 51°13.664 2°55.959 14.0154 0.018044 0.093569 0.392394
2011-02-23 07:35:38 51°13.664 2°55.959 14.0161 0.018044 0.093582 0.35757
2011-02-23 07:36:38 51°13.664 2°55.959 14.0163 0.018044 0.093596 0.392394
2011-02-23 07:37:38 51°13.665 2°55.96 14.0411 0.018044 0.09361 0.35757
2011-02-23 07:38:37 51°13.663 2°55.96 14.029 0.018044 0.093625 0.35757
2011-02-23 07:39:38 51°13.664 2°55.96 14.0325 0.01794 0.09312 0.35757
2011-02-23 07:40:37 51°13.664 2°55.96 14.0159 0.01794 0.093135 0.35757
2011-02-23 07:41:38 51°13.664 2°55.961 14.039 0.01794 0.093151 0.35757
2011-02-23 07:42:38 51°13.664 2°55.961 14.0535 0.01794 0.093166 0.35757
2011-02-23 07:43:38 51°13.664 2°55.962 14.0652 0.01794 0.093182 0.392394
2011-02-23 07:44:37 51°13.664 2°55.962 14.0621 0.01794 0.093196 0.35757
2011-02-23 07:45:38 51°13.664 2°55.962 14.0643 0.01794 0.093211 0.35757
2011-02-23 07:46:38 51°13.665 2°55.963 14.0718 0.01794 0.093224 0.35757
2011-02-23 07:47:38 51°13.664 2°55.962 14.0497 0.01794 0.093237 0.35757
2011-02-23 07:48:38 51°13.663 2°55.962 14.0446 0.01794 0.093248 0.35757
2011-02-23 07:49:37 51°13.662 2°55.961 14.0792 0.01794 0.093261 0.35757
2011-02-23 07:50:38 51°13.662 2°55.961 14.0987 0.01794 0.093277 0.35757
2011-02-23 07:51:38 51°13.662 2°55.961 14.1053 0.01794 0.09329 0.392394
2011-02-23 07:52:37 51°13.661 2°55.96 14.1226 0.01794 0.093305 0.35757
2011-02-23 07:53:37 51°13.661 2°55.961 14.1201 0.01794 0.09332 0.35757
2011-02-23 07:54:38 51°13.662 2°55.961 14.1039 0.01794 0.093336 0.392394
2011-02-23 07:55:38 51°13.662 2°55.961 14.0385 0.01794 0.093351 0.392394
2011-02-23 07:56:38 51°13.661 2°55.961 14.1115 0.01794 0.093366 0.392394
2011-02-23 07:57:38 51°13.666 2°55.94 14.0593 0.01794 0.093383 0.392394
2011-02-23 07:58:37 51°13.687 2°55.857 14.0749 0.01794 0.093398 0.392394
2011-02-23 07:59:38 51°13.69 2°55.748 14.098 0.01794 0.093413 0.392394
2011-02-23 08:00:37 51°13.725 2°55.731 14.1261 0.01794 0.093428 0.496866
2011-02-23 08:01:37 51°13.827 2°55.638 13.8124 0.01794 0.093442 0.392394
2011-02-23 08:02:37 51°13.95 2°55.543 13.8947 0.017836 0.092934 0.392394
2011-02-23 08:03:36 51°14.078 2°55.449 14.013 0.017836 0.092946 0.35757
2011-02-23 08:04:37 51°14.224 2°55.331 13.9305 0.017836 0.092956 0.35757
2011-02-23 08:05:35 51°14.375 2°55.185 13.7594 0.017836 0.092966 0.392394
2011-02-23 08:06:34 51°14.539 2°55.006 13.7079 0.017836 0.092975 0.392394
2011-02-23 08:07:34 51°14.712 2°54.786 13.7393 0.017836 0.092984 0.392394
2011-02-23 08:08:34 51°14.9 2°54.597 13.8784 0.017836 0.092998 0.427218
2011-02-23 08:09:34 51°15.084 2°54.403 13.7688 0.017836 0.093012 0.392394
2011-02-23 08:10:34 51°15.255 2°54.172 13.7951 0.017836 0.093025 0.392394
2011-02-23 08:11:34 51°15.429 2°53.95 13.751 0.017836 0.09304 0.392394
2011-02-23 08:12:34 51°15.607 2°53.719 13.7693 0.017836 0.093057 0.35757
2011-02-23 08:13:34 51°15.788 2°53.491 13.534 0.017836 0.093073 0.392394
2011-02-23 08:14:34 51°15.976 2°53.287 13.6812 0.017836 0.093092 0.35757
2011-02-23 08:15:34 51°16.17 2°53.103 13.7178 0.017836 0.093108 0.35757
2011-02-23 08:16:33 51°16.366 2°52.939 13.7461 0.017836 0.093126 0.392394
2011-02-23 08:17:34 51°16.575 2°52.786 13.703 0.017836 0.09314 0.35757
2011-02-23 08:18:33 51°16.78 2°52.666 13.6799 0.017836 0.093154 0.35757
2011-02-23 08:19:34 51°16.998 2°52.573 13.592 0.017836 0.09317 0.322746
2011-02-23 08:20:33 51°17.211 2°52.493 13.7419 0.017836 0.093189 0.322746
2011-02-23 08:21:34 51°17.419 2°52.339 13.696 0.017836 0.093199 0.322746
2011-02-23 08:22:33 51°17.621 2°52.186 13.6697 0.017836 0.093213 0.322746
2011-02-23 08:23:34 51°17.829 2°52.029 13.685 0.017836 0.093225 0.322746
2011-02-23 08:24:34 51°18.032 2°51.875 13.7036 0.017836 0.09324 0.35757
2011-02-23 08:25:33 51°18.234 2°51.721 13.6885 0.017732 0.092733 0.287922
2011-02-23 08:26:34 51°18.435 2°51.532 13.6669 0.017732 0.092748 0.35757
2011-02-23 08:27:33 51°18.63 2°51.352 13.6711 0.017732 0.092765 0.35757
2011-02-23 08:28:34 51°18.828 2°51.161 13.666 0.017732 0.092779 0.35757
2011-02-23 08:29:33 51°19.017 2°50.965 13.6978 0.017732 0.092795 0.35757
2011-02-23 08:30:34 51°19.211 2°50.761 13.6842 0.017732 0.092809 0.35757
2011-02-23 08:31:34 51°19.401 2°50.555 13.7047 0.017732 0.092824 0.392394
2011-02-23 08:32:34 51°19.592 2°50.346 13.6252 0.017732 0.092838 0.392394
2011-02-23 08:33:34 51°19.785 2°50.14 13.6653 0.017732 0.092859 0.392394
2011-02-23 08:34:33 51°19.974 2°49.939 13.6764 0.017732 0.092877 0.35757
2011-02-23 08:35:34 51°20.167 2°49.728 13.6721 0.017732 0.092894 0.287922
2011-02-23 08:36:33 51°20.353 2°49.533 13.7338 0.017732 0.092915 0.322746
2011-02-23 08:37:34 51°20.543 2°49.318 13.6938 0.017732 0.092936 0.287922
2011-02-23 08:38:33 51°20.732 2°49.12 13.7166 0.017732 0.092956 0.287922
2011-02-23 08:39:34 51°20.934 2°48.923 13.6857 0.017732 0.092979 0.287922
2011-02-23 08:40:33 51°21.133 2°48.743 13.6391 0.017732 0.093004 0.253098
2011-02-23 08:41:34 51°21.339 2°48.563 13.6559 0.017732 0.093024 0.253098
2011-02-23 08:42:34 51°21.538 2°48.389 13.693 0.017628 0.092519 0.253098
2011-02-23 08:43:33 51°21.735 2°48.212 13.7188 0.017628 0.092536 0.218274
2011-02-23 08:44:34 51°21.938 2°48.027 13.7158 0.017628 0.092558 0.218274
2011-02-23 08:45:33 51°22.135 2°47.842 13.7053 0.017628 0.092575 0.253098
2011-02-23 08:46:34 51°22.338 2°47.651 13.7333 0.017628 0.092594 0.253098
2011-02-23 08:47:33 51°22.537 2°47.475 13.7159 0.017628 0.092611 0.253098
2011-02-23 08:48:34 51°22.744 2°47.291 13.7447 0.017628 0.092628 0.253098
2011-02-23 08:49:33 51°22.943 2°47.114 13.7505 0.017628 0.092645 0.253098
2011-02-23 08:50:34 51°23.148 2°46.923 13.7703 0.017628 0.092663 0.253098
2011-02-23 08:51:34 51°23.35 2°46.737 13.776 0.017628 0.09268 0.218274
2011-02-23 08:52:34 51°23.553 2°46.552 13.8102 0.017628 0.092702 0.218274
2011-02-23 08:53:34 51°23.758 2°46.372 13.8082 0.017628 0.09272 0.253098
2011-02-23 08:54:34 51°23.961 2°46.194 13.7949 0.017628 0.092741 0.253098
2011-02-23 08:55:34 51°24.166 2°46.031 13.8244 0.017628 0.092762 0.253098
2011-02-23 08:56:33 51°24.367 2°45.875 13.8336 0.017628 0.09278 0.253098
2011-02-23 08:57:34 51°24.575 2°45.712 13.8308 0.017628 0.092795 0.253098
2011-02-23 08:58:33 51°24.779 2°45.557 13.8594 0.017628 0.092821 0.218274
2011-02-23 08:59:34 51°24.986 2°45.396 13.8755 0.017524 0.092307 0.218274
2011-02-23 09:00:34 51°25.197 2°45.262 13.8146 0.017524 0.092322 0.253098
2011-02-23 09:01:34 51°25.412 2°45.318 13.8355 0.017524 0.092335 0.287922
2011-02-23 09:02:34 51°25.591 2°45.502 13.8707 0.017524 0.092345 0.218274
2011-02-23 09:03:34 51°25.709 2°45.786 13.8431 0.017524 0.092367 0.218274
2011-02-23 09:04:34 51°25.832 2°46.065 13.913 0.017524 0.092382 0.18345
2011-02-23 09:05:33 51°25.948 2°46.346 13.8923 0.017524 0.092395 0.18345
2011-02-23 09:06:34 51°26.061 2°46.641 13.958 0.017524 0.092408 0.218274
2011-02-23 09:07:33 51°26.169 2°46.928 13.9296 0.017524 0.092423 0.18345
2011-02-23 09:08:34 51°26.282 2°47.223 13.9366 0.017524 0.09244 0.148626
2011-02-23 09:09:34 51°26.39 2°47.521 13.9688 0.017524 0.092454 0.18345
2011-02-23 09:10:34 51°26.499 2°47.814 13.9334 0.017524 0.09247 0.670986
2011-02-23 09:11:34 51°26.611 2°48.1 14.0264 0.017524 0.092491 0.218274
2011-02-23 09:12:34 51°26.717 2°48.389 13.9917 0.017524 0.092504 0.218274
2011-02-23 09:13:34 51°26.822 2°48.68 14.0502 0.017524 0.092519 0.218274
2011-02-23 09:14:33 51°26.931 2°48.966 14.0009 0.01742 0.092003 0.218274
2011-02-23 09:15:34 51°27.04 2°49.258 14.0493 0.017524 0.092538 0.218274
2011-02-23 09:16:33 51°27.144 2°49.544 14.0726 0.017524 0.092554 0.218274
2011-02-23 09:17:34 51°27.251 2°49.839 14.0917 0.01742 0.092035 0.253098
2011-02-23 09:18:34 51°27.357 2°50.131 14.1137 0.01742 0.092045 0.18345
2011-02-23 09:19:34 51°27.463 2°50.421 14.1279 0.01742 0.092053 0.18345
2011-02-23 09:20:34 51°27.574 2°50.706 14.1386 0.01742 0.092061 0.18345
2011-02-23 09:21:34 51°27.686 2°50.991 14.162 0.01742 0.092071 0.18345
2011-02-23 09:22:34 51°27.802 2°51.275 14.1624 0.01742 0.092075 0.18345
2011-02-23 09:23:33 51°27.913 2°51.559 14.1871 0.01742 0.092069 0.18345
2011-02-23 09:24:34 51°28.032 2°51.844 14.2143 0.01742 0.09209 0.18345
2011-02-23 09:25:33 51°28.142 2°52.122 14.1964 0.01742 0.092099 0.18345
2011-02-23 09:26:34 51°28.26 2°52.414 14.2292 0.01742 0.092109 0.148626
2011-02-23 09:27:34 51°28.373 2°52.703 14.2466 0.01742 0.092111 0.218274
2011-02-23 09:28:34 51°28.488 2°52.988 14.2431 0.01742 0.092129 0.322746
2011-02-23 09:29:34 51°28.598 2°53.285 14.2725 0.01742 0.092133 0.218274
2011-02-23 09:30:34 51°28.709 2°53.575 14.2599 0.01742 0.092142 0.18345
2011-02-23 09:31:34 51°28.824 2°53.861 14.2936 0.01742 0.092154 0.148626
2011-02-23 09:32:33 51°28.93 2°54.144 14.306 0.01742 0.092161 0.218274
2011-02-23 09:33:34 51°29.043 2°54.437 14.3 0.01742 0.092178 0.18345
2011-02-23 09:34:33 51°29.156 2°54.714 14.345 0.01742 0.092188 0.18345
2011-02-23 09:35:34 51°29.271 2°55 14.3661 0.01742 0.092198 0.18345
2011-02-23 09:36:33 51°29.376 2°55.285 14.3107 0.017316 0.091683 0.218274
2011-02-23 09:37:34 51°29.487 2°55.573 14.3945 0.01742 0.092218 0.18345
2011-02-23 09:38:34 51°29.597 2°55.862 14.3977 0.01742 0.092237 0.253098
2011-02-23 09:39:34 51°29.709 2°56.147 14.3728 0.017316 0.091718 0.18345
2011-02-23 09:40:34 51°29.822 2°56.44 14.408 0.017316 0.091733 0.18345
2011-02-23 09:41:33 51°29.933 2°56.727 14.4188 0.017316 0.091753 0.18345
2011-02-23 09:42:34 51°30.045 2°57.02 14.4019 0.017316 0.091767 0.18345
2011-02-23 09:43:33 51°30.155 2°57.299 14.4748 0.017316 0.091779 0.253098
2011-02-23 09:44:34 51°30.267 2°57.584 14.4738 0.017316 0.091781 0.18345
2011-02-23 09:45:33 51°30.375 2°57.857 14.4916 0.017316 0.091795 0.18345
2011-02-23 09:46:34 51°30.486 2°58.141 14.4873 0.017316 0.091801 0.218274
2011-02-23 09:47:34 51°30.594 2°58.421 14.5113 0.017316 0.091807 0.18345
2011-02-23 09:48:34 51°30.701 2°58.698 14.4982 0.017316 0.091812 0.253098
2011-02-23 09:49:34 51°30.806 2°58.977 14.5267 0.017316 0.091816 0.18345
2011-02-23 09:50:33 51°30.907 2°59.253 14.5221 0.017316 0.091824 0.218274
2011-02-23 09:51:34 51°31.013 2°59.539 14.5501 0.017316 0.091827 0.18345
2011-02-23 09:52:33 51°31.116 2°59.816 14.585 0.017316 0.091833 0.148626
2011-02-23 09:53:34 51°31.237 3°0.081 14.5559 0.017316 0.091841 0.18345
2011-02-23 09:54:34 51°31.372 3°0.328 14.586 0.017316 0.091847 0.287922
2011-02-23 09:55:34 51°31.506 3°0.578 14.563 0.017316 0.091849 0.218274
2011-02-23 09:56:34 51°31.607 3°0.861 14.5903 0.017316 0.091859 0.18345
2011-02-23 09:57:34 51°31.705 3°1.144 14.6074 0.017316 0.091857 0.287922
2011-02-23 09:58:34 51°31.803 3°1.43 14.6465 0.017316 0.09187 0.148626
2011-02-23 09:59:33 51°31.9 3°1.713 14.6558 0.017316 0.091876 0.18345
2011-02-23 10:00:34 51°32 3°2.003 14.6688 0.017316 0.091883 0.18345
2011-02-23 10:01:33 51°32.096 3°2.28 14.6879 0.017316 0.091887 0.18345
2011-02-23 10:02:34 51°32.195 3°2.571 14.6889 0.017316 0.091892 0.18345
2011-02-23 10:03:33 51°32.289 3°2.854 14.68 0.017316 0.091896 0.18345
2011-02-23 10:04:34 51°32.393 3°3.146 14.7024 0.017316 0.0919 0.218274
2011-02-23 10:05:34 51°32.509 3°3.42 14.6738 0.017316 0.091907 0.148626
2011-02-23 10:06:34 51°32.64 3°3.679 14.7401 0.017212 0.091383 0.18345
2011-02-23 10:07:34 51°32.835 3°3.65 14.7844 0.017212 0.091393 0.18345
2011-02-23 10:08:33 51°32.966 3°3.37 14.7748 0.017212 0.091394 0.18345
2011-02-23 10:09:34 51°33.114 3°3.086 14.7576 0.017212 0.091404 0.218274
2011-02-23 10:10:33 51°33.263 3°2.815 14.7826 0.017212 0.091412 0.218274
2011-02-23 10:11:34 51°33.417 3°2.541 14.7725 0.017212 0.091422 0.18345
2011-02-23 10:12:33 51°33.543 3°2.253 14.8111 0.017212 0.091439 0.18345
2011-02-23 10:13:34 51°33.487 3°1.927 14.7876 0.017212 0.091445 0.218274
2011-02-23 10:14:34 51°33.342 3°1.654 14.8008 0.017212 0.091451 0.218274
2011-02-23 10:15:34 51°33.199 3°1.374 14.8224 0.017212 0.091458 0.253098
2011-02-23 10:16:34 51°33.059 3°1.09 14.8314 0.017212 0.091467 0.218274
2011-02-23 10:17:33 51°32.919 3°0.811 14.828 0.017212 0.091473 0.218274
2011-02-23 10:18:34 51°32.775 3°0.524 14.8491 0.017212 0.091481 0.18345
2011-02-23 10:19:33 51°32.635 3°0.242 14.8607 0.017212 0.091487 0.218274
2011-02-23 10:20:34 51°32.49 2°59.951 14.8603 0.017212 0.091496 0.218274
2011-02-23 10:21:33 51°32.349 2°59.667 14.8819 0.017212 0.091504 0.18345
2011-02-23 10:22:34 51°32.202 2°59.376 14.8801 0.017212 0.091515 0.18345
2011-02-23 10:23:33 51°32.059 2°59.091 14.8999 0.017212 0.091524 0.218274
2011-02-23 10:24:34 51°31.914 2°58.794 14.887 0.017212 0.091536 0.218274
2011-02-23 10:25:34 51°31.778 2°58.492 14.9086 0.017212 0.091547 0.18345
2011-02-23 10:26:33 51°31.647 2°58.191 14.9074 0.017212 0.091556 0.218274
2011-02-23 10:27:34 51°31.511 2°57.878 14.9349 0.017212 0.091567 0.218274
2011-02-23 10:28:33 51°31.38 2°57.575 14.9128 0.017212 0.091576 0.218274
2011-02-23 10:29:34 51°31.247 2°57.261 14.9359 0.017212 0.091587 0.218274
2011-02-23 10:30:33 51°31.12 2°56.956 14.9617 0.017212 0.091596 0.18345
2011-02-23 10:31:34 51°30.985 2°56.641 14.9545 0.017212 0.091604 0.218274
2011-02-23 10:32:33 51°30.853 2°56.333 14.9445 0.017212 0.091614 0.18345
2011-02-23 10:33:34 51°30.716 2°56.013 14.9838 0.017212 0.091623 0.18345
2011-02-23 10:34:34 51°30.582 2°55.7 14.9789 0.017212 0.091631 0.218274
2011-02-23 10:35:33 51°30.459 2°55.379 14.9786 0.017212 0.091642 0.218274
2011-02-23 10:36:34 51°30.334 2°55.044 15.0018 0.017212 0.091653 0.218274
2011-02-23 10:37:33 51°30.214 2°54.722 15.0448 0.017108 0.091129 0.18345
2011-02-23 10:38:34 51°30.027 2°54.547 14.9962 0.017108 0.09114 0.218274
2011-02-23 10:39:33 51°29.811 2°54.531 15.0161 0.017108 0.091145 0.218274
2011-02-23 10:40:34 51°29.585 2°54.483 15.0158 0.017108 0.091157 0.253098
2011-02-23 10:41:33 51°29.367 2°54.436 15.0144 0.017108 0.091169 0.218274
2011-02-23 10:42:34 51°29.144 2°54.352 15.0365 0.017108 0.09118 0.218274
2011-02-23 10:43:34 51°28.934 2°54.212 15.0626 0.017108 0.091188 0.218274
2011-02-23 10:44:33 51°28.735 2°54.035 15.0377 0.017108 0.091196 0.218274
2011-02-23 10:45:34 51°28.572 2°53.757 15.0839 0.017108 0.09121 0.18345
2011-02-23 10:46:33 51°28.433 2°53.459 15.1092 0.017108 0.091216 0.18345
2011-02-23 10:47:34 51°28.305 2°53.13 15.1128 0.017108 0.091226 0.18345
2011-02-23 10:48:33 51°28.181 2°52.811 15.1149 0.017108 0.091235 0.18345
2011-02-23 10:49:33 51°28.056 2°52.483 15.1206 0.017108 0.091243 0.218274
2011-02-23 10:50:33 51°27.935 2°52.154 15.1342 0.017108 0.091254 0.218274
2011-02-23 10:51:33 51°27.811 2°51.825 15.1309 0.017108 0.091264 0.18345
2011-02-23 10:52:33 51°27.69 2°51.495 15.1402 0.017108 0.091276 0.253098
2011-02-23 10:53:33 51°27.59 2°51.147 15.146 0.017108 0.091288 0.18345
2011-02-23 10:54:34 51°27.504 2°50.783 15.1499 0.017108 0.091299 0.18345
2011-02-23 10:55:33 51°27.422 2°50.431 15.1145 0.017108 0.091313 0.218274
2011-02-23 10:56:33 51°27.37 2°50.058 15.1637 0.017108 0.091327 0.218274
2011-02-23 10:57:33 51°27.322 2°49.683 15.1722 0.017108 0.091337 0.218274
2011-02-23 10:58:33 51°27.263 2°49.31 15.1814 0.017108 0.091349 0.218274
2011-02-23 10:59:33 51°27.203 2°48.938 15.1706 0.017108 0.091354 0.218274
2011-02-23 11:00:32 51°27.142 2°48.573 15.1824 0.017108 0.091368 0.218274
2011-02-23 11:01:34 51°27.077 2°48.189 15.1629 0.017108 0.091375 0.218274
2011-02-23 11:02:33 51°27.018 2°47.824 15.1967 0.017108 0.091384 0.18345
2011-02-23 11:03:34 51°26.955 2°47.448 15.2054 0.017004 0.090856 0.253098
2011-02-23 11:04:34 51°26.894 2°47.079 15.2154 0.017004 0.090866 0.218274
2011-02-23 11:05:34 51°26.833 2°46.71 15.2012 0.017108 0.091409 0.218274
2011-02-23 11:06:34 51°26.779 2°46.339 15.2303 0.017004 0.090884 0.218274
2011-02-23 11:07:34 51°26.729 2°45.968 15.2545 0.017004 0.090889 0.287922
2011-02-23 11:08:34 51°26.677 2°45.599 15.226 0.017004 0.090897 0.218274
2011-02-23 11:09:34 51°26.624 2°45.227 15.2525 0.017108 0.091442 0.253098
2011-02-23 11:10:32 51°26.571 2°44.863 15.2675 0.017004 0.090912 0.18345
2011-02-23 11:11:34 51°26.537 2°44.474 15.2447 0.017004 0.090905 0.218274
2011-02-23 11:12:34 51°26.689 2°44.261 15.2883 0.017004 0.090918 0.18345
2011-02-23 11:13:34 51°26.893 2°44.197 15.2793 0.017004 0.090926 0.218274
2011-02-23 11:14:34 51°27.095 2°44.143 15.2686 0.017004 0.090931 0.18345
2011-02-23 11:15:34 51°27.297 2°44.091 15.316 0.017004 0.090932 0.18345
2011-02-23 11:16:34 51°27.501 2°44.037 15.3226 0.017004 0.090931 0.18345
2011-02-23 11:17:32 51°27.697 2°43.989 15.3315 0.017004 0.090929 0.18345
2011-02-23 11:18:34 51°27.911 2°43.939 15.3479 0.017004 0.090933 0.18345
2011-02-23 11:19:32 51°28.105 2°43.934 15.3802 0.017004 0.090932 0.218274
2011-02-23 11:20:32 51°28.3 2°43.974 15.3388 0.017004 0.090933 0.18345
2011-02-23 11:21:34 51°28.503 2°44.004 15.3758 0.017004 0.090934 0.253098
2011-02-23 11:22:32 51°28.689 2°44.068 15.3628 0.017004 0.090933 0.218274
2011-02-23 11:23:33 51°28.884 2°44.168 15.3689 0.017004 0.090938 0.18345
2011-02-23 11:24:33 51°29.063 2°44.296 15.3488 0.017004 0.090938 0.18345
2011-02-23 11:25:33 51°29.235 2°44.445 15.4599 0.017004 0.090937 0.218274
2011-02-23 11:26:33 51°29.41 2°44.595 15.3592 0.017004 0.090939 0.218274
2011-02-23 11:27:32 51°29.574 2°44.756 15.4296 0.017004 0.090923 0.218274
2011-02-23 11:28:32 51°29.739 2°44.919 15.4456 0.017004 0.090944 0.18345
2011-02-23 11:29:32 51°29.904 2°45.093 15.4743 0.017004 0.090949 0.322746
2011-02-23 11:30:34 51°30.074 2°45.26 15.4722 0.017004 0.090954 0.18345
2011-02-23 11:31:32 51°30.222 2°45.45 15.5 0.017004 0.090955 0.18345
2011-02-23 11:32:33 51°30.366 2°45.657 15.4602 0.017004 0.09095 0.218274
2011-02-23 11:33:33 51°30.508 2°45.866 15.5204 0.017004 0.09097 0.18345
2011-02-23 11:34:33 51°30.625 2°46.103 15.4351 0.017004 0.090971 0.392394
2011-02-23 11:35:33 51°30.686 2°46.395 15.4964 0.017004 0.090976 0.496866
2011-02-23 11:36:33 51°30.744 2°46.691 15.5551 0.017004 0.090977 0.392394
2011-02-23 11:37:32 51°30.779 2°46.987 15.5233 0.017004 0.090981 0.35757
2011-02-23 11:38:32 51°30.78 2°47.303 15.5796 0.017004 0.090974 0.18345
2011-02-23 11:39:34 51°30.786 2°47.628 15.593 0.017004 0.090992 0.18345
2011-02-23 11:40:32 51°30.792 2°47.933 15.6299 0.017004 0.091001 0.218274
2011-02-23 11:41:33 51°30.801 2°48.255 15.6045 0.017004 0.091007 0.322746
2011-02-23 11:42:33 51°30.812 2°48.571 15.6165 0.017004 0.091005 0.218274
2011-02-23 11:43:33 51°30.822 2°48.886 15.6312 0.017004 0.091023 0.35757
2011-02-23 11:44:33 51°30.836 2°49.198 15.6714 0.017004 0.091044 0.18345
2011-02-23 11:45:33 51°30.826 2°49.516 15.6749 0.017004 0.091053 0.18345
2011-02-23 11:46:32 51°30.798 2°49.827 15.637 0.017004 0.091077 0.462042
2011-02-23 11:47:32 51°30.776 2°50.145 15.7049 0.017004 0.091092 0.148626
2011-02-23 11:48:32 51°30.788 2°50.465 15.71 0.017004 0.091106 0.253098
2011-02-23 11:49:32 51°30.822 2°50.775 15.7328 0.017004 0.091121 0.287922
2011-02-23 11:50:32 51°30.854 2°51.086 15.6898 0.017004 0.091106 0.427218
2011-02-23 11:51:32 51°30.888 2°51.401 15.7662 0.0169 0.090597 0.253098
2011-02-23 11:52:33 51°30.962 2°51.689 15.7219 0.017004 0.091142 0.287922
2011-02-23 11:53:33 51°31.052 2°51.965 15.773 0.0169 0.090613 0.287922
2011-02-23 11:54:34 51°31.142 2°52.244 15.7813 0.0169 0.090613 0.253098
2011-02-23 11:55:32 51°31.225 2°52.517 15.7855 0.0169 0.090626 0.253098
2011-02-23 11:56:32 51°31.304 2°52.799 15.7965 0.0169 0.090638 0.35757
2011-02-23 11:57:34 51°31.384 2°53.094 15.801 0.0169 0.090643 0.427218
2011-02-23 11:58:32 51°31.461 2°53.369 15.8236 0.0169 0.090653 0.287922
2011-02-23 11:59:32 51°31.538 2°53.649 15.8205 0.0169 0.090659 0.253098
2011-02-23 12:00:33 51°31.621 2°53.933 15.831 0.0169 0.090666 0.218274
2011-02-23 12:01:33 51°31.704 2°54.216 15.8652 0.0169 0.09068 0.218274
2011-02-23 12:02:33 51°31.801 2°54.483 15.8322 0.0169 0.090692 0.218274
2011-02-23 12:03:33 51°31.895 2°54.754 15.8629 0.0169 0.090691 0.253098
2011-02-23 12:04:32 51°31.996 2°55.014 15.8665 0.0169 0.090707 0.18345
2011-02-23 12:05:32 51°32.066 2°55.305 15.8603 0.0169 0.090714 0.462042
2011-02-23 12:06:34 51°32.117 2°55.623 15.8923 0.0169 0.090722 0.287922
2011-02-23 12:07:32 51°32.22 2°55.867 15.9065 0.0169 0.090726 0.18345
2011-02-23 12:08:32 51°32.379 2°56.05 15.9117 0.0169 0.090738 0.218274
2011-02-23 12:09:33 51°32.559 2°56.188 15.9061 0.0169 0.090748 0.18345
2011-02-23 12:10:33 51°32.722 2°56.356 15.8795 0.0169 0.090752 0.35757
2011-02-23 12:11:33 51°32.857 2°56.587 15.9452 0.0169 0.090758 0.18345
2011-02-23 12:12:33 51°32.985 2°56.826 15.9804 0.0169 0.090768 0.287922
2011-02-23 12:13:33 51°33.097 2°57.076 15.9923 0.0169 0.090764 0.18345
2011-02-23 12:14:34 51°33.188 2°57.358 15.9759 0.0169 0.090782 0.148626
2011-02-23 12:15:32 51°33.281 2°57.622 15.9893 0.0169 0.090787 0.322746
2011-02-23 12:16:32 51°33.39 2°57.873 15.9745 0.0169 0.090787 0.148626
2011-02-23 12:17:32 51°33.462 2°58.163 15.9502 0.0169 0.090801 0.253098
2011-02-23 12:18:32 51°33.551 2°58.427 16.0065 0.0169 0.090809 0.218274
2011-02-23 12:19:33 51°33.657 2°58.687 16.0098 0.0169 0.090819 0.218274
2011-02-23 12:20:33 51°33.761 2°58.952 15.9887 0.0169 0.090814 0.70581
2011-02-23 12:21:33 51°33.845 2°59.224 16.0097 0.0169 0.090838 0.18345
2011-02-23 12:22:33 51°33.954 2°59.479 16.0204 0.0169 0.090835 0.148626
2011-02-23 12:23:32 51°34.069 2°59.711 16.0251 0.0169 0.090841 0.18345
2011-02-23 12:24:32 51°34.167 2°59.975 16.0459 0.0169 0.09086 0.218274
2011-02-23 12:25:32 51°34.261 3°0.246 16.049 0.0169 0.090867 0.18345
2011-02-23 12:26:32 51°34.372 3°0.508 16.0513 0.0169 0.090853 0.392394
2011-02-23 12:27:32 51°34.492 3°0.724 16.076 0.0169 0.090853 0.253098
2011-02-23 12:28:33 51°34.648 3°0.553 16.0683 0.0169 0.090858 0.218274
2011-02-23 12:29:33 51°34.773 3°0.269 16.0813 0.0169 0.090858 0.18345
2011-02-23 12:30:33 51°34.908 2°59.994 16.0831 0.0169 0.090862 0.18345
2011-02-23 12:31:33 51°35.027 2°59.697 16.0864 0.016796 0.090324 0.218274
2011-02-23 12:32:33 51°35.148 2°59.402 16.0939 0.016796 0.090321 0.218274
2011-02-23 12:33:33 51°35.237 2°59.095 16.1078 0.016796 0.09034 0.287922
2011-02-23 12:34:32 51°35.154 2°58.755 16.1104 0.0169 0.090876 0.18345
2011-02-23 12:35:33 51°35 2°58.467 16.1035 0.016796 0.09034 0.218274
2011-02-23 12:36:33 51°34.867 2°58.154 16.1102 0.016796 0.090347 0.218274
2011-02-23 12:37:33 51°34.73 2°57.841 16.1183 0.0169 0.09089 0.218274
2011-02-23 12:38:33 51°34.585 2°57.539 16.126 0.016796 0.090354 0.218274
2011-02-23 12:39:33 51°34.441 2°57.238 16.1179 0.016796 0.090359 0.218274
2011-02-23 12:40:33 51°34.319 2°56.911 16.1344 0.016796 0.090371 0.18345
2011-02-23 12:41:33 51°34.185 2°56.598 16.1478 0.016796 0.090376 0.218274
2011-02-23 12:42:33 51°34.054 2°56.281 16.1468 0.016796 0.090384 0.18345
2011-02-23 12:43:33 51°33.915 2°55.976 16.1373 0.016796 0.090384 0.218274
2011-02-23 12:44:33 51°33.781 2°55.666 16.1403 0.016796 0.090398 0.218274
2011-02-23 12:45:33 51°33.64 2°55.37 16.1423 0.016796 0.090408 0.218274
2011-02-23 12:46:33 51°33.505 2°55.061 16.1626 0.016796 0.090421 0.18345
2011-02-23 12:47:33 51°33.365 2°54.763 16.1694 0.016796 0.090424 0.18345
2011-02-23 12:48:33 51°33.22 2°54.468 16.1549 0.016796 0.090435 0.18345
2011-02-23 12:49:33 51°33.092 2°54.151 16.1619 0.016796 0.090447 0.18345
2011-02-23 12:50:33 51°32.962 2°53.837 16.1807 0.016796 0.090449 0.218274
2011-02-23 12:51:33 51°32.83 2°53.527 16.1803 0.016796 0.090451 0.218274
2011-02-23 12:52:33 51°32.713 2°53.207 16.2014 0.016796 0.090459 0.253098
2011-02-23 12:53:33 51°32.589 2°52.896 16.1949 0.016796 0.090471 0.218274
2011-02-23 12:54:33 51°32.471 2°52.574 16.1987 0.016796 0.090485 0.253098
2011-02-23 12:55:33 51°32.35 2°52.255 16.1956 0.016796 0.090494 0.218274
2011-02-23 12:56:33 51°32.238 2°51.929 16.198 0.016796 0.090506 0.218274
2011-02-23 12:57:33 51°32.112 2°51.615 16.2095 0.016796 0.090508 0.218274
2011-02-23 12:58:33 51°31.983 2°51.31 16.1977 0.016796 0.090518 0.218274
2011-02-23 12:59:33 51°31.872 2°50.99 16.2038 0.016796 0.090535 0.18345
2011-02-23 13:00:33 51°31.76 2°50.667 16.2188 0.016796 0.090545 0.218274
2011-02-23 13:01:33 51°31.638 2°50.351 16.2068 0.016796 0.090554 0.218274
2011-02-23 13:02:34 51°31.519 2°50.025 16.2319 0.016796 0.090565 0.218274
2011-02-23 13:03:32 51°31.401 2°49.722 16.2286 0.016796 0.090571 0.218274
2011-02-23 13:04:34 51°31.277 2°49.398 16.2226 0.016796 0.090584 0.253098
2011-02-23 13:05:32 51°31.164 2°49.09 16.2449 0.016796 0.090597 0.18345
2011-02-23 13:06:34 51°31.037 2°48.767 16.2459 0.016796 0.090599 0.218274
2011-02-23 13:07:32 51°30.908 2°48.477 16.2262 0.016796 0.090603 0.218274
2011-02-23 13:08:34 51°30.809 2°48.133 16.2468 0.016796 0.090625 0.218274
2011-02-23 13:09:32 51°30.725 2°47.805 16.2555 0.016796 0.090631 0.18345
2011-02-23 13:10:34 51°30.636 2°47.454 16.2598 0.016796 0.090638 0.218274
2011-02-23 13:11:34 51°30.552 2°47.112 16.2608 0.016796 0.090649 0.18345
2011-02-23 13:12:32 51°30.459 2°46.791 16.2558 0.016796 0.09066 0.218274
2011-02-23 13:13:34 51°30.309 2°46.503 7.221 0.016693 0.090253 0.287922
2011-02-23 13:14:32 51°30.166 2°46.235 6.4405 3.592829 34.96668 0.810283
2011-02-23 13:15:34 51°30.016 2°45.942 6.3498 3.435853 34.125419 0.775459
2011-02-23 13:16:32 51°29.877 2°45.67 6.3318 3.41572 34.044938 0.845107
2011-02-23 13:17:34 51°29.741 2°45.363 6.3245 3.40676 33.988275 0.810283
2011-02-23 13:18:32 51°29.618 2°45.073 6.3138 3.41182 34.077617 0.670986
2011-02-23 13:19:32 51°29.495 2°44.771 6.2972 3.41298 34.105013 0.845107
2011-02-23 13:20:32 51°29.369 2°44.473 6.3006 3.412137 34.114477 0.879931
2011-02-23 13:21:32 51°29.241 2°44.182 6.3061 3.41161 34.121469 0.914755
2011-02-23 13:22:34 51°29.112 2°43.871 6.3097 3.411504 34.119441 0.740634
2011-02-23 13:23:32 51°28.991 2°43.581 6.3021 3.410872 34.121839 0.775459
2011-02-23 13:24:34 51°28.86 2°43.27 6.3094 3.411188 34.123639 0.845107
2011-02-23 13:25:32 51°28.74 2°42.976 6.3051 3.410345 34.126267 0.775459
2011-02-23 13:26:34 51°28.616 2°42.662 6.3117 3.410872 34.12441 0.914755
2011-02-23 13:27:32 51°28.503 2°42.368 6.3163 3.411926 34.130979 1.019227
2011-02-23 13:28:32 51°28.382 2°42.065 6.3257 3.412348 34.133949 1.158523
2011-02-23 13:29:32 51°28.262 2°41.761 6.3321 3.412875 34.136376 1.228171
2011-02-23 13:30:32 51°28.144 2°41.46 6.3299 3.413191 34.135604 1.228171
2011-02-23 13:31:34 51°28.021 2°41.148 6.3394 3.413086 34.135291 1.47194
2011-02-23 13:32:32 51°27.906 2°40.859 6.3386 3.413191 34.138175 1.611236
2011-02-23 13:33:34 51°27.783 2°40.547 6.3356 3.413929 34.1438 1.402292
2011-02-23 13:34:32 51°27.67 2°40.256 6.3373 3.413718 34.141459 1.437116
2011-02-23 13:35:34 51°27.548 2°39.948 6.3384 3.413929 34.1438 1.402292
2011-02-23 13:36:32 51°27.432 2°39.657 6.3466 3.414667 34.151997 1.680884
2011-02-23 13:37:33 51°27.269 2°39.444 6.3477 3.414772 34.153168 1.541588
2011-02-23 13:38:33 51°27.084 2°39.591 6.3751 3.414667 34.142569 1.611236
2011-02-23 13:39:33 51°26.906 2°39.791 6.3417 3.416459 34.140196 1.506764
2011-02-23 13:40:32 51°26.727 2°39.983 6.3242 3.414667 34.139143 1.611236
2011-02-23 13:41:33 51°26.542 2°40.182 6.3175 3.412137 34.132464 1.576412
2011-02-23 13:42:33 51°26.362 2°40.377 6.3016 3.410767 34.124952 1.541588
2011-02-23 13:43:32 51°26.185 2°40.569 6.2803 3.408975 34.120467 1.541588
2011-02-23 13:44:33 51°26.003 2°40.769 6.2721 3.408026 34.121925 1.576412
2011-02-23 13:45:33 51°25.823 2°40.964 6.2481 3.404337 34.104052 1.611236
2011-02-23 13:46:33 51°25.646 2°41.158 6.2474 3.401596 34.082996 1.506764
2011-02-23 13:47:33 51°25.467 2°41.356 6.2333 3.401175 34.079162 1.715708
2011-02-23 13:48:33 51°25.28 2°41.53 6.2129 3.396642 34.045012 1.506764
2011-02-23 13:49:33 51°25.091 2°41.701 6.1801 3.391266 34.018591 1.611236
2011-02-23 13:50:32 51°24.906 2°41.872 6.1501 3.386102 33.992769 1.680884
2011-02-23 13:51:33 51°24.713 2°42.047 6.1248 3.380621 33.966818 1.680884
2011-02-23 13:52:33 51°24.522 2°42.22 6.1008 3.377142 33.945167 1.611236
2011-02-23 13:53:32 51°24.337 2°42.393 6.1036 3.373875 33.924138 1.576412
2011-02-23 13:54:33 51°24.143 2°42.567 6.0846 3.371767 33.903181 1.611236
2011-02-23 13:55:33 51°23.955 2°42.738 6.078 3.366813 33.865873 1.611236
2011-02-23 13:56:32 51°23.77 2°42.909 6.058 3.36207 33.82918 1.576412
2011-02-23 13:57:33 51°23.577 2°43.08 6.0382 3.358275 33.79536 1.64606
2011-02-23 13:58:33 51°23.389 2°43.247 5.9874 3.347208 33.707624 1.506764
2011-02-23 13:59:33 51°23.2 2°43.415 5.949 3.333611 33.60001 1.541588
2011-02-23 14:00:33 51°23.013 2°43.586 5.9237 3.324547 33.52334 1.506764
2011-02-23 14:01:33 51°22.827 2°43.758 5.9035 3.314429 33.438207 1.541588
2011-02-23 14:02:33 51°22.642 2°43.937 5.8854 3.307368 33.380411 1.576412
2011-02-23 14:03:32 51°22.462 2°44.116 5.8612 3.29862 33.299449 1.576412
2011-02-23 14:04:33 51°22.271 2°44.298 5.8418 3.292086 33.251694 1.541588
2011-02-23 14:05:33 51°22.082 2°44.477 5.8404 3.289451 33.234883 1.47194
2011-02-23 14:06:32 51°21.898 2°44.655 5.8362 3.288186 33.222408 1.541588
2011-02-23 14:07:33 51°21.71 2°44.843 5.8192 3.282917 33.171831 1.64606
2011-02-23 14:08:33 51°21.524 2°45.027 5.7994 3.276488 33.112477 1.611236
2011-02-23 14:09:32 51°21.344 2°45.208 5.7913 3.270164 33.061028 1.680884
2011-02-23 14:10:33 51°21.156 2°45.397 5.7746 3.263946 33.00735 1.64606
2011-02-23 14:11:33 51°20.978 2°45.58 5.6655 3.260047 32.977113 1.576412
2011-02-23 14:12:33 51°20.799 2°45.76 5.6322 3.211676 32.541746 1.47194
2011-02-23 14:13:33 51°20.62 2°45.945 5.6318 3.203668 32.47684 1.332643
2011-02-23 14:14:33 51°20.441 2°46.132 5.634 3.200928 32.447742 1.332643
2011-02-23 14:15:32 51°20.263 2°46.318 5.6281 3.200717 32.442879 1.402292
2011-02-23 14:16:33 51°20.077 2°46.516 5.6265 3.200401 32.447652 1.332643
2011-02-23 14:17:33 51°19.893 2°46.704 5.6139 3.201455 32.456987 1.402292
2011-02-23 14:18:32 51°19.714 2°46.881 5.5786 3.191128 32.355993 1.402292
2011-02-23 14:19:33 51°19.531 2°47.065 5.5642 3.174268 32.197323 1.297819
2011-02-23 14:20:33 51°19.349 2°47.245 5.5573 3.164679 32.11028 1.297819
2011-02-23 14:21:33 51°19.168 2°47.428 5.5573 3.164258 32.10142 1.367467
2011-02-23 14:22:33 51°18.986 2°47.609 5.5489 3.162572 32.089909 1.402292
2011-02-23 14:23:33 51°18.803 2°47.791 5.5515 3.163942 32.106947 1.367467
2011-02-23 14:24:33 51°18.62 2°47.973 5.5472 3.167419 32.14684 1.402292
2011-02-23 14:25:33 51°18.437 2°48.16 5.554 3.176376 32.250818 1.367467
2011-02-23 14:26:33 51°18.253 2°48.348 5.5758 3.193763 32.433021 1.576412
2011-02-23 14:27:33 51°18.066 2°48.525 5.5978 3.214628 32.649338 1.437116
2011-02-23 14:28:33 51°17.879 2°48.703 5.6032 3.227801 32.784962 1.541588
2011-02-23 14:29:32 51°17.693 2°48.864 5.6072 3.23718 32.882939 1.541588
2011-02-23 14:30:33 51°17.5 2°49.02 5.5851 3.243292 32.95429 1.576412
2011-02-23 14:31:33 51°17.313 2°49.173 5.5513 3.232438 32.859092 1.576412
2011-02-23 14:32:32 51°17.129 2°49.324 5.5291 3.214839 32.68782 1.576412
2011-02-23 14:33:33 51°16.941 2°49.484 5.5298 3.208727 32.630733 1.506764
2011-02-23 14:34:33 51°16.756 2°49.64 5.5524 3.210624 32.651261 1.611236
2011-02-23 14:35:33 51°16.571 2°49.805 5.9377 0.082334 0.647197 1.367467
2011-02-23 14:36:33 51°16.391 2°49.992 6.0793 0.068807 0.535173 1.680884
2011-02-23 14:37:33 51°16.21 2°50.182 6.19 0.059443 0.458076 1.506764
2011-02-23 14:38:33 51°16.025 2°50.37 6.3278 0.054761 0.419145 1.158523
2011-02-23 14:39:32 51°15.845 2°50.56 6.5026 0.051848 0.39453 0.775459
2011-02-23 14:40:32 51°15.706 2°50.829 6.6242 0.049144 0.371765 0.879931
2011-02-23 14:41:32 51°15.616 2°51.176 6.6969 0.046959 0.353329 0.670986
2011-02-23 14:42:32 51°15.525 2°51.525 6.8211 0.045191 0.338326 0.427218
2011-02-23 14:43:32 51°15.435 2°51.869 6.9348 0.043734 0.325956 0.427218
2011-02-23 14:44:33 51°15.36 2°52.176 7.1323 0.042278 0.313689 0.392394
2011-02-23 14:45:32 51°15.291 2°52.464 7.2722 0.040926 0.30234 0.670986
2011-02-23 14:46:33 51°15.219 2°52.761 7.3671 0.039782 0.292695 0.496866
2011-02-23 14:47:32 51°15.145 2°53.065 7.5092 0.038741 0.283919 0.670986
2011-02-23 14:48:33 51°15.082 2°53.328 7.6839 0.037805 0.276059 0.949579
2011-02-23 14:49:32 51°15.049 2°53.528 7.8342 0.036973 0.269029 1.193347
2011-02-23 14:50:32 51°15.024 2°53.714 7.9055 0.036349 0.263607 1.228171
2011-02-23 14:51:32 51°14.995 2°53.9 8.1136 0.035621 0.257473 1.123699
2011-02-23 14:52:33 51°14.925 2°54.165 8.1215 0.035101 0.252921 1.088875
2011-02-23 14:53:32 51°14.835 2°54.446 8.2765 0.034581 0.248414 1.054051
2011-02-23 14:54:33 51°14.726 2°54.733 8.3464 0.034061 0.243956 1.054051
2011-02-23 14:55:33 51°14.596 2°54.973 8.4659 0.033645 0.240297 1.054051
2011-02-23 14:56:32 51°14.457 2°55.124 8.6918 0.033333 0.237429 1.088875
2011-02-23 14:57:33 51°14.356 2°55.209 8.8448 0.032917 0.233814 1.088875
2011-02-23 14:58:33 51°14.284 2°55.272 8.9722 0.032605 0.230969 1.088875
2011-02-23 14:59:35 51°14.213 2°55.335 9.0789 0.032293 0.228149 1.088875
2011-02-23 15:00:36 51°14.119 2°55.413 9.14 0.031981 0.225351 1.054051
2011-02-23 15:01:36 51°14.002 2°55.501 9.1873 0.031669 0.222577 1.054051
2011-02-23 15:02:37 51°13.905 2°55.571 9.4306 0.031461 0.220579 1.088875
2011-02-23 15:03:36 51°13.817 2°55.637 9.5155 0.031253 0.218591 1.054051
2011-02-23 15:04:37 51°13.75 2°55.724 9.6386 0.030941 0.215865 1.054051
2011-02-23 15:05:37 51°13.71 2°55.808 9.7099 0.030733 0.213895 1.054051
2011-02-23 15:06:36 51°13.679 2°55.884 9.8618 0.030525 0.211948 1.054051
2011-02-23 15:07:37 51°13.667 2°55.944 9.9399 0.030316 0.210024 1.054051
2011-02-23 15:08:37 51°13.665 2°55.955 10.1457 0.030212 0.208854 1.054051